createdAt,value
2018-02-13T00:02:22.255Z,-0.60
2018-02-13T00:04:50.395Z,-0.68
2018-02-13T00:07:18.088Z,-0.72
2018-02-13T00:09:45.823Z,-0.63
2018-02-13T00:12:13.499Z,-0.50
2018-02-13T00:14:41.587Z,-0.46
2018-02-13T00:17:09.250Z,-0.49
2018-02-13T00:19:36.938Z,-0.43
2018-02-13T00:22:04.707Z,-0.38
2018-02-13T00:24:32.357Z,-0.38
2018-02-13T00:27:00.309Z,-0.39
2018-02-13T00:29:28.358Z,-0.38
2018-02-13T00:31:56.453Z,-0.40
2018-02-13T00:34:24.523Z,-0.50
2018-02-13T00:36:52.558Z,-0.47
2018-02-13T00:39:20.372Z,-0.50
2018-02-13T00:41:48.106Z,-0.49
2018-02-13T00:44:15.825Z,-0.48
2018-02-13T00:46:43.586Z,-0.50
2018-02-13T00:49:11.429Z,-0.57
2018-02-13T00:51:39.180Z,-0.75
2018-02-13T00:54:06.935Z,-0.78
2018-02-13T00:56:34.827Z,-0.78
2018-02-13T00:59:02.786Z,-0.75
2018-02-13T01:01:30.605Z,-0.86
2018-02-13T01:03:58.320Z,-0.92
2018-02-13T01:06:26.072Z,-0.89
2018-02-13T01:08:54.064Z,-0.79
2018-02-13T01:11:22.087Z,-0.66
2018-02-13T01:13:49.942Z,-0.64
2018-02-13T01:16:17.804Z,-0.71
2018-02-13T01:18:45.825Z,-0.79
2018-02-13T01:21:13.913Z,-0.85
2018-02-13T01:23:41.825Z,-0.82
2018-02-13T01:26:09.699Z,-0.66
2018-02-13T01:28:37.362Z,-0.69
2018-02-13T01:31:05.091Z,-0.78
2018-02-13T01:33:32.798Z,-0.85
2018-02-13T01:36:00.692Z,-0.98
2018-02-13T01:38:28.395Z,-0.92
2018-02-13T01:40:56.186Z,-0.99
2018-02-13T01:43:23.864Z,-1.00
2018-02-13T01:45:51.533Z,-0.93
2018-02-13T01:48:19.274Z,-0.76
2018-02-13T01:50:47.041Z,-0.90
2018-02-13T01:53:14.699Z,-0.95
2018-02-13T01:55:42.474Z,-1.04
2018-02-13T01:58:10.172Z,-1.11
2018-02-13T02:00:37.862Z,-0.96
2018-02-13T02:03:05.796Z,-0.83
2018-02-13T02:05:33.520Z,-0.86
2018-02-13T02:08:01.291Z,-0.88
2018-02-13T02:10:29.031Z,-0.80
2018-02-13T02:12:56.753Z,-0.76
2018-02-13T02:15:24.517Z,-0.77
2018-02-13T02:17:53.235Z,-0.78
2018-02-13T02:20:20.900Z,-0.76
2018-02-13T02:22:48.638Z,-0.80
2018-02-13T02:25:16.301Z,-0.85
2018-02-13T02:27:43.995Z,-0.80
2018-02-13T02:30:11.739Z,-0.85
2018-02-13T02:32:39.406Z,-0.88
2018-02-13T02:35:08.702Z,-0.80
2018-02-13T02:37:36.631Z,-0.86
2018-02-13T02:40:04.333Z,-0.85
2018-02-13T02:42:43.663Z,-0.83
2018-02-13T02:45:11.434Z,-0.89
2018-02-13T02:47:39.219Z,-0.96
2018-02-13T02:50:07.001Z,-0.91
2018-02-13T02:52:34.664Z,-0.96
2018-02-13T02:55:02.342Z,-1.16
2018-02-13T02:57:30.053Z,-1.30
2018-02-13T02:59:57.989Z,-1.23
2018-02-13T03:02:26.074Z,-1.35
2018-02-13T03:04:54.028Z,-1.16
2018-02-13T03:07:21.742Z,-1.11
2018-02-13T03:09:49.418Z,-1.06
2018-02-13T03:12:17.178Z,-0.95
2018-02-13T03:14:44.992Z,-0.90
2018-02-13T03:17:13.636Z,-0.95
2018-02-13T03:19:41.678Z,-0.91
2018-02-13T03:22:09.429Z,-1.03
2018-02-13T03:24:37.115Z,-1.14
2018-02-13T03:27:04.950Z,-1.11
2018-02-13T03:29:33.520Z,-1.02
2018-02-13T03:32:01.406Z,-0.99
2018-02-13T03:34:29.105Z,-0.89
2018-02-13T03:36:56.772Z,-0.97
2018-02-13T03:39:24.905Z,-0.91
2018-02-13T03:41:52.613Z,-0.82
2018-02-13T03:44:20.368Z,-0.90
2018-02-13T03:46:48.998Z,-0.93
2018-02-13T03:49:16.720Z,-0.85
2018-02-13T03:51:44.439Z,-0.82
2018-02-13T03:54:12.130Z,-0.87
2018-02-13T03:56:39.843Z,-0.95
2018-02-13T03:59:07.539Z,-1.07
2018-02-13T04:01:35.317Z,-0.99
2018-02-13T04:04:03.026Z,-1.02
2018-02-13T04:06:30.780Z,-1.07
2018-02-13T04:08:58.505Z,-1.12
2018-02-13T04:11:26.223Z,-1.12
2018-02-13T04:13:53.883Z,-1.07
2018-02-13T04:16:21.601Z,-1.03
2018-02-13T04:18:49.280Z,-0.95
2018-02-13T04:21:16.991Z,-0.97
2018-02-13T04:23:44.637Z,-1.01
2018-02-13T04:26:12.433Z,-1.01
2018-02-13T04:28:40.105Z,-0.98
2018-02-13T04:31:07.964Z,-0.99
2018-02-13T04:33:35.610Z,-0.95
2018-02-13T04:36:03.358Z,-0.96
2018-02-13T04:38:31.119Z,-1.05
2018-02-13T04:40:58.926Z,-1.12
2018-02-13T04:43:26.988Z,-1.17
2018-02-13T04:45:54.710Z,-1.10
2018-02-13T04:48:22.425Z,-1.23
2018-02-13T04:50:50.081Z,-1.17
2018-02-13T04:53:17.789Z,-1.27
2018-02-13T04:55:45.505Z,-1.25
2018-02-13T04:58:13.231Z,-1.24
2018-02-13T05:00:40.961Z,-1.10
2018-02-13T05:03:08.620Z,-1.05
2018-02-13T05:05:36.335Z,-1.21
2018-02-13T05:08:04.056Z,-1.12
2018-02-13T05:10:31.749Z,-1.05
2018-02-13T05:12:59.468Z,-1.01
2018-02-13T05:15:27.155Z,-1.05
2018-02-13T05:17:54.882Z,-1.07
2018-02-13T05:20:22.589Z,-1.18
2018-02-13T05:22:50.406Z,-1.13
2018-02-13T05:25:18.255Z,-1.10
2018-02-13T05:27:45.982Z,-1.20
2018-02-13T05:30:13.717Z,-1.18
2018-02-13T05:32:41.376Z,-1.14
2018-02-13T05:35:09.122Z,-1.11
2018-02-13T05:37:36.791Z,-1.23
2018-02-13T05:40:04.484Z,-1.20
2018-02-13T05:42:32.212Z,-1.23
2018-02-13T05:44:59.863Z,-1.36
2018-02-13T05:47:27.698Z,-1.36
2018-02-13T05:49:56.629Z,-1.31
2018-02-13T05:52:24.535Z,-1.33
2018-02-13T05:54:52.235Z,-1.36
2018-02-13T05:57:19.977Z,-1.46
2018-02-13T05:59:47.682Z,-1.46
2018-02-13T06:02:15.400Z,-1.47
2018-02-13T06:04:43.123Z,-1.53
2018-02-13T06:07:10.899Z,-1.63
2018-02-13T06:09:38.631Z,-1.65
2018-02-13T06:12:06.313Z,-1.75
2018-02-13T06:14:34.069Z,-1.78
2018-02-13T06:17:01.736Z,-1.80
2018-02-13T06:19:29.488Z,-1.89
2018-02-13T06:21:58.448Z,-1.87
2018-02-13T06:24:26.181Z,-1.89
2018-02-13T06:26:53.905Z,-1.86
2018-02-13T06:29:21.656Z,-1.82
2018-02-13T06:31:49.325Z,-1.76
2018-02-13T06:34:17.178Z,-1.70
2018-02-13T06:36:44.922Z,-1.71
2018-02-13T06:39:12.682Z,-1.69
2018-02-13T06:41:40.510Z,-1.59
2018-02-13T06:44:08.257Z,-1.48
2018-02-13T06:46:36.532Z,-1.48
2018-02-13T06:49:04.298Z,-1.44
2018-02-13T06:51:32.001Z,-1.35
2018-02-13T06:54:01.389Z,-1.48
2018-02-13T06:56:29.083Z,-1.51
2018-02-13T06:58:56.825Z,-1.33
2018-02-13T07:01:24.544Z,-1.17
2018-02-13T07:03:53.471Z,-1.11
2018-02-13T07:06:21.634Z,-1.03
2018-02-13T07:08:50.640Z,-0.99
2018-02-13T07:11:18.501Z,-0.97
2018-02-13T07:13:46.306Z,-0.93
2018-02-13T07:16:14.136Z,-0.85
2018-02-13T07:18:42.293Z,-0.78
2018-02-13T07:21:10.074Z,-0.77
2018-02-13T07:23:38.720Z,-0.68
2018-02-13T07:26:06.574Z,-0.56
2018-02-13T07:28:34.365Z,-0.51
2018-02-13T07:31:02.118Z,-0.59
2018-02-13T07:33:29.895Z,-0.80
2018-02-13T07:35:57.687Z,-0.92
2018-02-13T07:38:25.364Z,-0.88
2018-02-13T07:40:53.218Z,-0.55
2018-02-13T07:43:21.056Z,-0.29
2018-02-13T07:45:48.763Z,-0.15
2018-02-13T07:48:16.454Z,-0.07
2018-02-13T07:50:44.189Z,0.10
2018-02-13T07:53:11.895Z,0.27
2018-02-13T07:55:39.600Z,0.37
2018-02-13T07:58:07.320Z,0.44
2018-02-13T08:00:35.170Z,0.12
2018-02-13T08:03:02.925Z,-0.32
2018-02-13T08:05:30.763Z,-0.07
2018-02-13T08:07:58.600Z,0.09
2018-02-13T08:10:26.547Z,-0.22
2018-02-13T08:12:54.335Z,-0.18
2018-02-13T08:15:22.038Z,-0.03
2018-02-13T08:17:49.783Z,0.06
2018-02-13T08:20:17.506Z,0.17
2018-02-13T08:22:45.324Z,0.32
2018-02-13T08:25:13.126Z,0.67
2018-02-13T08:27:40.987Z,0.96
2018-02-13T08:30:08.784Z,1.11
2018-02-13T08:32:36.556Z,1.21
2018-02-13T08:35:04.350Z,1.24
2018-02-13T08:37:32.201Z,1.21
2018-02-13T08:40:00.612Z,1.28
2018-02-13T08:42:28.334Z,2.26
2018-02-13T08:44:56.235Z,2.05
2018-02-13T08:47:24.196Z,1.58
2018-02-13T08:49:52.131Z,1.68
2018-02-13T08:52:19.884Z,1.97
2018-02-13T08:54:47.548Z,1.95
2018-02-13T08:57:15.278Z,1.88
2018-02-13T08:59:43.034Z,2.14
2018-02-13T09:02:11.909Z,1.97
2018-02-13T09:04:39.678Z,2.40
2018-02-13T09:07:07.381Z,1.74
2018-02-13T09:09:35.170Z,1.57
2018-02-13T09:12:03.000Z,1.67
2018-02-13T09:14:30.797Z,1.39
2018-02-13T09:16:58.496Z,1.46
2018-02-13T09:19:26.169Z,1.50
2018-02-13T09:21:53.916Z,1.47
2018-02-13T09:24:21.612Z,1.13
2018-02-13T09:26:49.386Z,0.68
2018-02-13T09:29:17.173Z,0.64
2018-02-13T09:31:45.996Z,0.69
2018-02-13T09:34:13.731Z,0.67
2018-02-13T09:36:41.481Z,0.93
2018-02-13T09:39:09.142Z,1.07
2018-02-13T09:41:37.607Z,1.23
2018-02-13T09:44:05.430Z,1.00
2018-02-13T09:46:33.140Z,1.04
2018-02-13T09:49:00.869Z,0.92
2018-02-13T09:51:28.598Z,0.99
2018-02-13T09:53:56.356Z,1.12
2018-02-13T09:56:24.096Z,1.49
2018-02-13T09:58:51.856Z,1.55
2018-02-13T10:01:19.622Z,1.56
2018-02-13T10:03:47.305Z,1.76
2018-02-13T10:06:15.043Z,1.58
2018-02-13T10:08:42.796Z,1.91
2018-02-13T10:11:10.596Z,1.58
2018-02-13T10:13:38.332Z,1.45
2018-02-13T10:16:06.079Z,1.77
2018-02-13T10:18:33.742Z,1.40
2018-02-13T10:21:01.549Z,1.49
2018-02-13T10:23:29.288Z,1.61
2018-02-13T10:25:57.014Z,1.78
2018-02-13T10:28:24.717Z,1.80
2018-02-13T10:30:52.470Z,1.88
2018-02-13T10:33:20.152Z,1.36
2018-02-13T10:35:48.057Z,1.96
2018-02-13T10:38:15.822Z,1.85
2018-02-13T10:40:43.546Z,2.07
2018-02-13T10:43:11.262Z,1.85
2018-02-13T10:45:38.965Z,2.36
2018-02-13T10:48:06.653Z,1.84
2018-02-13T10:50:34.374Z,2.01
2018-02-13T10:53:02.080Z,2.33
2018-02-13T10:55:29.873Z,2.37
2018-02-13T10:57:57.705Z,2.00
2018-02-13T11:00:30.895Z,1.93
2018-02-13T11:02:58.644Z,2.66
2018-02-13T11:05:26.328Z,2.14
2018-02-13T11:07:54.101Z,2.14
2018-02-13T11:10:21.778Z,1.88
2018-02-13T11:12:49.555Z,1.76
2018-02-13T11:15:17.335Z,2.00
2018-02-13T11:17:45.078Z,1.88
2018-02-13T11:20:12.823Z,2.24
2018-02-13T11:22:40.642Z,2.24
2018-02-13T11:25:08.360Z,2.24
2018-02-13T11:27:36.149Z,2.07
2018-02-13T11:30:03.878Z,2.78
2018-02-13T11:32:31.603Z,2.93
2018-02-13T11:34:59.407Z,2.94
2018-02-13T11:37:27.161Z,2.66
2018-02-13T11:39:54.963Z,2.65
2018-02-13T11:42:22.778Z,2.74
2018-02-13T11:44:50.584Z,2.15
2018-02-13T11:47:18.344Z,2.31
2018-02-13T11:49:47.904Z,2.81
2018-02-13T11:52:16.443Z,2.54
2018-02-13T11:54:44.327Z,2.53
2018-02-13T11:57:12.511Z,2.56
2018-02-13T11:59:40.261Z,2.76
2018-02-13T12:02:08.271Z,3.04
2018-02-13T12:04:36.060Z,3.22
2018-02-13T12:07:04.363Z,2.98
2018-02-13T12:09:33.005Z,2.84
2018-02-13T12:12:00.812Z,3.19
2018-02-13T12:14:28.569Z,3.07
2018-02-13T12:16:56.329Z,2.95
2018-02-13T12:19:24.021Z,3.18
2018-02-13T12:21:51.830Z,2.33
2018-02-13T12:24:19.619Z,2.69
2018-02-13T12:26:47.441Z,2.21
2018-02-13T12:29:15.211Z,2.53
2018-02-13T12:31:42.976Z,2.95
2018-02-13T12:34:10.759Z,3.49
2018-02-13T12:36:38.454Z,3.27
2018-02-13T12:39:06.557Z,2.87
2018-02-13T12:41:34.353Z,3.44
2018-02-13T12:44:02.152Z,3.44
2018-02-13T12:46:30.008Z,3.23
2018-02-13T12:48:57.811Z,3.18
2018-02-13T12:51:26.836Z,3.00
2018-02-13T12:53:55.372Z,3.05
2018-02-13T12:56:23.219Z,3.40
2018-02-13T12:58:51.095Z,3.81
2018-02-13T13:01:19.000Z,4.07
2018-02-13T13:03:46.811Z,4.34
2018-02-13T13:06:14.666Z,4.22
2018-02-13T13:08:42.449Z,3.11
2018-02-13T13:11:11.415Z,3.07
2018-02-13T13:13:39.129Z,3.77
2018-02-13T13:16:06.885Z,3.40
2018-02-13T13:18:34.645Z,3.05
2018-02-13T13:21:02.369Z,2.82
2018-02-13T13:23:30.193Z,2.71
2018-02-13T13:25:58.094Z,3.09
2018-02-13T13:28:25.823Z,3.28
2018-02-13T13:30:53.565Z,2.90
2018-02-13T13:33:21.397Z,2.80
2018-02-13T13:35:49.089Z,3.05
2018-02-13T13:38:17.125Z,3.03
2018-02-13T13:40:44.901Z,3.28
2018-02-13T13:43:12.637Z,3.52
2018-02-13T13:45:40.384Z,3.58
2018-02-13T13:48:08.198Z,3.88
2018-02-13T13:50:35.994Z,3.97
2018-02-13T13:53:03.789Z,4.36
2018-02-13T13:55:31.487Z,4.19
2018-02-13T13:57:59.297Z,4.09
2018-02-13T14:00:27.148Z,4.23
2018-02-13T14:02:55.439Z,3.16
2018-02-13T14:05:23.214Z,2.86
2018-02-13T14:07:50.993Z,2.94
2018-02-13T14:10:18.723Z,2.84
2018-02-13T14:12:46.513Z,3.22
2018-02-13T14:15:14.412Z,2.77
2018-02-13T14:17:42.233Z,2.96
2018-02-13T14:20:10.074Z,2.46
2018-02-13T14:22:37.883Z,2.34
2018-02-13T14:25:05.847Z,2.49
2018-02-13T14:27:33.837Z,2.57
2018-02-13T14:30:01.552Z,2.37
2018-02-13T14:32:29.390Z,2.49
2018-02-13T14:34:57.176Z,2.70
2018-02-13T14:37:24.889Z,2.78
2018-02-13T14:39:52.648Z,2.06
2018-02-13T14:42:20.387Z,1.90
2018-02-13T14:44:48.174Z,1.93
2018-02-13T14:47:15.997Z,2.34
2018-02-13T14:49:43.858Z,2.46
2018-02-13T14:52:12.875Z,1.73
2018-02-13T14:54:40.701Z,1.71
2018-02-13T14:57:09.019Z,1.71
2018-02-13T14:59:36.823Z,1.73
2018-02-13T15:02:04.633Z,1.67
2018-02-13T15:04:32.501Z,1.29
2018-02-13T15:07:00.284Z,1.24
2018-02-13T15:09:28.095Z,1.17
2018-02-13T15:11:55.940Z,1.29
2018-02-13T15:14:23.735Z,1.09
2018-02-13T15:16:54.090Z,1.20
2018-02-13T15:19:21.834Z,1.45
2018-02-13T15:21:49.765Z,1.20
2018-02-13T15:24:17.531Z,1.08
2018-02-13T15:26:45.245Z,1.26
2018-02-13T15:29:13.100Z,1.36
2018-02-13T15:31:41.939Z,1.34
2018-02-13T15:34:09.652Z,1.37
2018-02-13T15:36:37.407Z,1.49
2018-02-13T15:39:06.177Z,1.24
2018-02-13T15:41:35.091Z,1.51
2018-02-13T15:44:03.665Z,1.45
2018-02-13T15:46:31.447Z,1.05
2018-02-13T15:48:59.237Z,0.76
2018-02-13T15:51:26.985Z,0.73
2018-02-13T15:53:54.729Z,0.68
2018-02-13T15:56:22.526Z,0.58
2018-02-13T15:58:50.409Z,0.78
2018-02-13T16:01:18.163Z,0.94
2018-02-13T16:03:47.172Z,0.99
2018-02-13T16:06:14.910Z,0.79
2018-02-13T16:08:42.857Z,0.96
2018-02-13T16:11:11.698Z,0.81
2018-02-13T16:13:39.454Z,0.75
2018-02-13T16:16:07.208Z,0.58
2018-02-13T16:18:34.921Z,0.62
2018-02-13T16:21:02.635Z,0.72
2018-02-13T16:23:30.394Z,0.63
2018-02-13T16:25:58.153Z,0.50
2018-02-13T16:28:26.099Z,0.54
2018-02-13T16:30:53.896Z,0.32
2018-02-13T16:33:21.684Z,0.18
2018-02-13T16:35:49.462Z,0.15
2018-02-13T16:38:17.905Z,-0.07
2018-02-13T16:40:45.666Z,-0.25
2018-02-13T16:43:13.498Z,-0.46
2018-02-13T16:45:41.294Z,-0.45
2018-02-13T16:48:09.084Z,-0.40
2018-02-13T16:50:36.877Z,-0.42
2018-02-13T16:53:04.600Z,-0.63
2018-02-13T16:55:32.410Z,-0.67
2018-02-13T16:58:00.173Z,-0.62
2018-02-13T17:00:27.884Z,-0.82
2018-02-13T17:02:56.620Z,-0.82
2018-02-13T17:05:24.379Z,-0.80
2018-02-13T17:07:53.179Z,-0.83
2018-02-13T17:12:54.808Z,-1.02
2018-02-13T17:15:22.939Z,-1.07
2018-02-13T17:17:50.735Z,-1.07
2018-02-13T17:20:18.580Z,-1.14
2018-02-13T17:22:46.297Z,-1.23
2018-02-13T17:25:14.136Z,-1.26
2018-02-13T17:27:41.970Z,-1.32
2018-02-13T17:30:09.774Z,-1.25
2018-02-13T17:32:37.495Z,-1.36
2018-02-13T17:35:05.313Z,-1.44
2018-02-13T17:37:33.932Z,-1.45
2018-02-13T17:40:01.707Z,-1.51
2018-02-13T17:42:31.623Z,-1.54
2018-02-13T17:44:59.394Z,-1.69
2018-02-13T17:47:27.431Z,-1.76
2018-02-13T17:49:55.261Z,-2.01
2018-02-13T17:52:24.211Z,-1.85
2018-02-13T17:54:51.956Z,-1.90
2018-02-13T17:57:19.748Z,-1.88
2018-02-13T17:59:47.535Z,-1.94
2018-02-13T18:02:15.959Z,-1.92
2018-02-13T18:04:43.709Z,-2.03
2018-02-13T18:07:12.359Z,-2.16
2018-02-13T18:09:41.145Z,-2.33
2018-02-13T18:12:09.015Z,-2.39
2018-02-13T18:14:36.729Z,-2.46
2018-02-13T18:17:04.568Z,-2.62
2018-02-13T18:19:32.568Z,-2.76
2018-02-13T18:22:00.396Z,-2.94
2018-02-13T18:24:28.405Z,-2.99
2018-02-13T18:26:56.354Z,-3.11
2018-02-13T18:29:24.314Z,-3.05
2018-02-13T18:31:52.116Z,-3.03
2018-02-13T18:34:20.678Z,-2.89
2018-02-13T18:36:48.480Z,-2.89
2018-02-13T18:39:17.088Z,-2.97
2018-02-13T18:41:46.036Z,-3.00
2018-02-13T18:44:14.776Z,-3.00
2018-02-13T18:46:44.244Z,-3.11
2018-02-13T18:49:12.237Z,-3.26
2018-02-13T18:51:40.058Z,-3.29
2018-02-13T18:54:07.988Z,-3.48
2018-02-13T18:56:35.838Z,-3.44
2018-02-13T18:59:04.562Z,-3.66
2018-02-13T19:01:34.326Z,-3.60
2018-02-13T19:04:03.472Z,-3.62
2018-02-13T19:06:31.232Z,-3.58
2018-02-13T19:08:59.096Z,-3.58
2018-02-13T19:11:29.758Z,-3.64
2018-02-13T19:14:00.038Z,-3.68
2018-02-13T19:16:37.400Z,-3.77
2018-02-13T19:19:07.876Z,-3.74
2018-02-13T19:21:38.943Z,-3.79
2018-02-13T19:24:06.842Z,-3.79
2018-02-13T19:26:45.608Z,-4.04
2018-02-13T19:29:15.906Z,-4.05
2018-02-13T19:31:51.598Z,-4.09
2018-02-13T19:34:44.335Z,-4.11
2018-02-13T19:37:20.274Z,-4.17
2018-02-13T19:39:51.221Z,-4.22
2018-02-13T19:42:23.993Z,-4.19
2018-02-13T19:45:13.066Z,-4.24
2018-02-13T19:47:53.341Z,-4.22
2018-02-13T19:53:22.629Z,-4.37
2018-02-13T19:55:51.521Z,-4.28
2018-02-13T19:58:21.540Z,-4.26
2018-02-13T20:00:51.454Z,-4.11
2018-02-13T20:03:32.112Z,-4.14
2018-02-13T20:06:02.529Z,-4.33
2018-02-13T20:11:21.741Z,-4.57
2018-02-13T20:13:54.782Z,-4.58
2018-02-13T20:16:25.194Z,-4.55
2018-02-13T20:18:54.364Z,-4.55
2018-02-13T20:21:27.094Z,-4.58
2018-02-13T20:23:56.002Z,-4.56
2018-02-13T20:26:26.640Z,-4.54
2018-02-13T20:29:02.007Z,-4.65
2018-02-13T20:31:42.844Z,-4.75
2018-02-13T20:34:18.962Z,-4.86
2018-02-13T20:36:51.284Z,-4.87
2018-02-13T20:39:40.072Z,-4.87
2018-02-13T20:56:45.425Z,-5.11
2018-02-13T21:03:06.835Z,-5.04
2018-02-13T21:12:14.634Z,-5.43
2018-02-13T21:18:20.635Z,-5.61
2018-02-13T21:33:19.659Z,-5.74
